Time;durP1;ratioP1;P1;durP2;ratioP2;P2;SDS_P1;SDS_P2;PMS_P1;PMS_P2;Temp;Humidity;BMP_temperature;BMP_pressure;BME280_temperature;BME280_humidity;BME280_pressure;Samples;Min_cycle;Max_cycle;Signal;HPM_P1;HPM_P2
2023/12/05 00:01:29;;;;;;;22.20;12.48;;;-0.90;99.90;;;;;;5013803;28;20137;-76
2023/12/05 00:03:55;;;;;;;23.50;12.70;;;-1.10;99.90;;;;;;5012406;28;20045;-75
2023/12/05 00:06:20;;;;;;;24.92;12.40;;;-1.00;99.90;;;;;;5013553;28;20061;-76
2023/12/05 00:08:46;;;;;;;19.60;10.88;;;-1.00;99.90;;;;;;5016828;28;20057;-75
2023/12/05 00:11:12;;;;;;;22.48;10.35;;;-1.00;99.90;;;;;;5015105;28;20069;-76
2023/12/05 00:13:37;;;;;;;;;;;-0.90;99.90;;;;;;5015730;28;20026;-76
2023/12/05 00:16:03;;;;;;;20.02;10.95;;;-0.90;99.90;;;;;;5032529;28;19924;-76
2023/12/05 00:18:29;;;;;;;18.92;10.63;;;-0.90;99.90;;;;;;5017204;28;20056;-77
2023/12/05 00:20:55;;;;;;;22.23;11.50;;;-0.90;99.90;;;;;;5014665;28;20033;-76
2023/12/05 00:23:20;;;;;;;21.33;12.13;;;-0.90;99.90;;;;;;5011022;28;20037;-76
2023/12/05 00:25:46;;;;;;;24.50;12.20;;;-0.90;99.90;;;;;;5010977;28;20036;-76
2023/12/05 00:28:11;;;;;;;;;;;-1.00;99.90;;;;;;5012746;28;20473;-76
2023/12/05 00:30:37;;;;;;;23.55;12.02;;;-1.00;99.90;;;;;;5027325;28;19909;-75
2023/12/05 00:33:03;;;;;;;;;;;-1.10;99.90;;;;;;5012472;28;20061;-77
2023/12/05 00:35:28;;;;;;;23.27;9.52;;;-1.10;99.90;;;;;;5027706;28;19917;-76
2023/12/05 00:37:54;;;;;;;18.13;11.00;;;-0.90;99.90;;;;;;5027634;28;20604;-77
2023/12/05 00:40:20;;;;;;;;;;;-1.00;99.90;;;;;;5011707;28;20028;-77
2023/12/05 00:42:45;;;;;;;22.77;12.32;;;-1.10;99.90;;;;;;5011140;28;19912;-77
2023/12/05 00:45:12;;;;;;;;;;;-1.10;99.90;;;;;;5013012;28;20079;-77
2023/12/05 00:47:37;;;;;;;20.77;11.77;;;-1.00;99.90;;;;;;5027936;28;19912;-77
2023/12/05 00:50:04;;;;;;;19.58;10.80;;;-0.90;99.90;;;;;;5011814;28;20033;-77
2023/12/05 00:52:29;;;;;;;21.13;11.95;;;-0.90;99.90;;;;;;5012697;28;20494;-77
2023/12/05 00:54:55;;;;;;;24.38;11.10;;;-0.90;99.90;;;;;;5011019;28;20065;-77
2023/12/05 00:57:20;;;;;;;;;;;-0.80;99.90;;;;;;5012575;28;20161;-76
2023/12/05 00:59:46;;;;;;;20.55;11.32;;;-1.00;99.90;;;;;;5027329;28;19909;-77
2023/12/05 01:02:11;;;;;;;;;;;-0.90;99.90;;;;;;5011649;28;20129;-77
2023/12/05 01:04:37;;;;;;;19.98;11.75;;;-1.00;99.90;;;;;;5027334;28;20490;-77
2023/12/05 01:07:04;;;;;;;;;;;-1.00;99.90;;;;;;5012536;28;20032;-77
2023/12/05 01:09:30;;;;;;;20.77;10.57;;;-1.00;99.90;;;;;;5027532;28;19916;-77
2023/12/05 01:11:55;;;;;;;;;;;-1.10;99.90;;;;;;5011465;28;20038;-77
2023/12/05 01:14:21;;;;;;;20.52;10.40;;;-1.10;99.90;;;;;;5012202;28;19909;-77
2023/12/05 01:16:46;;;;;;;;;;;-1.10;99.90;;;;;;5012921;28;20068;-77
2023/12/05 01:19:12;;;;;;;22.20;12.70;;;-1.20;99.90;;;;;;5011891;28;19910;-77
2023/12/05 01:21:37;;;;;;;;;;;-1.10;99.90;;;;;;5012846;28;20100;-77
2023/12/05 01:24:03;;;;;;;22.00;11.45;;;-1.10;99.90;;;;;;5027633;28;19909;-77
2023/12/05 01:26:29;;;;;;;;;;;-1.10;99.90;;;;;;5012946;28;20030;-77
2023/12/05 01:28:55;;;;;;;23.90;12.95;;;-1.10;99.90;;;;;;5012374;28;20390;-77
2023/12/05 01:31:20;;;;;;;29.27;14.65;;;-1.10;99.90;;;;;;5011774;28;20469;-77
2023/12/05 01:33:46;;;;;;;;;;;-1.10;99.90;;;;;;5011464;28;20145;-78
2023/12/05 01:36:12;;;;;;;21.20;10.82;;;-1.00;99.90;;;;;;5012278;28;20016;-77
2023/12/05 01:38:39;;;;;;;21.25;11.98;;;-1.00;99.90;;;;;;5012484;28;20093;-77
2023/12/05 01:41:06;;;;;;;22.05;12.93;;;-1.00;99.90;;;;;;5012298;28;20398;-77
2023/12/05 01:43:31;;;;;;;19.40;11.25;;;-1.00;99.90;;;;;;5011569;28;20030;-77
2023/12/05 01:45:57;;;;;;;;;;;-0.90;99.90;;;;;;5010688;28;20030;-77
2023/12/05 01:48:25;;;;;;;19.45;11.18;;;-1.00;99.90;;;;;;5011639;28;19913;-77
2023/12/05 01:50:53;;;;;;;20.13;12.27;;;-1.00;99.90;;;;;;5011790;28;20033;-76
2023/12/05 01:53:20;;;;;;;21.98;12.88;;;-1.00;99.90;;;;;;5011350;28;20032;-77
2023/12/05 01:55:46;;;;;;;25.45;13.35;;;-1.00;99.90;;;;;;5010460;28;20112;-76
2023/12/05 01:58:11;;;;;;;;;;;-1.00;99.90;;;;;;5011533;28;20030;-77
2023/12/05 02:00:39;;;;;;;22.88;12.18;;;-1.00;99.90;;;;;;5012057;28;19913;-77
2023/12/05 02:03:04;;;;;;;22.20;11.35;;;-0.60;99.90;;;;;;5011738;28;20048;-77
2023/12/05 02:05:30;;;;;;;;;;;-0.70;99.90;;;;;;5013141;28;20033;-76
2023/12/05 02:07:57;;;;;;;18.77;9.38;;;-0.40;99.90;;;;;;5012072;28;19921;-77
2023/12/05 02:10:23;;;;;;;21.90;9.45;;;-0.30;99.90;;;;;;5010506;28;20125;-77
2023/12/05 02:12:49;;;;;;;17.40;9.98;;;-0.30;99.90;;;;;;5012558;28;20053;-78
2023/12/05 02:15:14;;;;;;;;;;;-0.30;99.90;;;;;;5015442;28;20060;-76
2023/12/05 02:18:09;;;;;;;21.60;11.35;;;-0.30;99.90;;;;;;5019003;28;19905;-77
2023/12/05 02:20:59;;;;;;;18.13;9.82;;;-0.40;99.90;;;;;;5013851;28;20030;-77
2023/12/05 02:23:40;;;;;;;20.65;10.23;;;-0.40;99.90;;;;;;5015678;28;20034;-76
2023/12/05 02:26:24;;;;;;;19.52;9.10;;;-0.30;99.90;;;;;;5013917;28;20026;-76
2023/12/05 02:28:50;;;;;;;17.50;9.48;;;-0.20;99.90;;;;;;5013693;28;20028;-76
2023/12/05 02:31:15;;;;;;;17.73;8.98;;;-0.20;99.90;;;;;;5013591;28;20037;-77
2023/12/05 02:33:41;;;;;;;;;;;-0.20;99.90;;;;;;5015308;28;20411;-77
2023/12/05 02:36:10;;;;;;;18.30;9.50;;;-0.20;99.90;;;;;;5029538;28;20306;-76
2023/12/05 02:38:55;;;;;;;16.80;9.30;;;-0.10;99.90;;;;;;5014665;28;20052;-76
2023/12/05 02:41:24;;;;;;;17.35;8.48;;;-0.20;99.90;;;;;;5014503;28;20092;-77
2023/12/05 02:43:58;;;;;;;16.23;8.60;;;-0.20;99.90;;;;;;5012919;28;20087;-76
2023/12/05 02:46:24;;;;;;;18.38;9.35;;;-0.20;99.90;;;;;;5031090;28;20065;-77
2023/12/05 02:48:51;;;;;;;19.27;10.75;;;-0.20;99.90;;;;;;5014598;28;20061;-76
2023/12/05 02:51:17;;;;;;;18.35;9.32;;;-0.10;99.90;;;;;;5012934;28;20033;-76
2023/12/05 02:53:42;;;;;;;18.98;10.27;;;-0.10;99.90;;;;;;5013508;28;20021;-76
2023/12/05 02:56:08;;;;;;;17.92;9.50;;;-0.20;99.90;;;;;;5012856;28;20034;-76
2023/12/05 02:58:34;;;;;;;;;;;-0.10;99.90;;;;;;5029701;28;20037;-76
2023/12/05 03:01:00;;;;;;;19.23;10.30;;;-0.10;99.90;;;;;;5029404;28;19909;-76
2023/12/05 03:03:26;;;;;;;18.27;9.43;;;-0.10;99.90;;;;;;5012913;28;20036;-76
2023/12/05 03:05:51;;;;;;;;;;;-0.10;99.90;;;;;;5014467;28;20030;-76
2023/12/05 03:08:17;;;;;;;17.48;9.38;;;-0.20;99.90;;;;;;5029019;28;19912;-76
2023/12/05 03:10:42;;;;;;;;;;;-0.10;99.90;;;;;;5013330;28;20021;-76
2023/12/05 03:13:08;;;;;;;17.38;9.27;;;-0.10;99.90;;;;;;5015668;28;19906;-77
2023/12/05 03:15:33;;;;;;;18.83;8.93;;;-0.20;99.90;;;;;;5017161;28;20042;-77
2023/12/05 03:17:59;;;;;;;;;;;-0.10;99.90;;;;;;5032274;28;20037;-77
2023/12/05 03:20:24;;;;;;;22.02;10.52;;;-0.20;99.90;;;;;;5016654;28;20000;-76
2023/12/05 03:22:50;;;;;;;;;;;-0.20;99.90;;;;;;5018881;28;20084;-76
2023/12/05 03:25:16;;;;;;;17.40;9.05;;;-0.20;99.90;;;;;;5031156;28;20000;-76
2023/12/05 03:27:42;;;;;;;;;;;-0.20;99.90;;;;;;5012776;28;20506;-76
2023/12/05 03:30:08;;;;;;;18.92;9.57;;;-0.20;99.90;;;;;;5013446;28;19905;-75
2023/12/05 03:32:34;;;;;;;15.07;7.60;;;-0.10;99.90;;;;;;5028397;28;20053;-76
2023/12/05 03:34:59;;;;;;;16.02;7.47;;;-0.10;99.90;;;;;;5012262;28;20045;-76
2023/12/05 03:37:25;;;;;;;16.75;7.53;;;-0.10;99.90;;;;;;5012368;28;20048;-76
2023/12/05 03:39:50;;;;;;;;;;;-0.10;99.90;;;;;;5013544;28;20029;-76
2023/12/05 03:42:16;;;;;;;17.38;9.15;;;-0.10;99.90;;;;;;5013409;28;20296;-76
2023/12/05 03:44:41;;;;;;;;;;;-0.10;99.90;;;;;;5011974;28;20030;-76
2023/12/05 03:47:07;;;;;;;18.50;8.93;;;-0.10;99.90;;;;;;5028406;28;19941;-76
2023/12/05 03:49:33;;;;;;;;;;;-0.10;99.90;;;;;;5012201;28;20120;-76
2023/12/05 03:52:01;;;;;;;17.20;9.02;;;-0.10;99.90;;;;;;5028187;28;19933;-76
2023/12/05 03:54:27;;;;;;;20.73;9.48;;;-0.10;99.90;;;;;;5028535;28;20399;-76
2023/12/05 03:56:52;;;;;;;17.40;9.25;;;-0.10;99.90;;;;;;5011726;28;20044;-75
2023/12/05 03:59:18;;;;;;;22.92;9.00;;;-0.20;99.90;;;;;;5011084;28;20029;-75
2023/12/05 04:01:44;;;;;;;17.58;9.43;;;-0.20;99.90;;;;;;5012717;28;20038;-75
2023/12/05 04:04:09;;;;;;;;;;;-0.10;99.90;;;;;;5011574;28;20067;-74
2023/12/05 04:06:35;;;;;;;18.73;9.35;;;-0.10;99.90;;;;;;5027668;28;20007;-75
2023/12/05 04:09:00;;;;;;;16.13;8.07;;;0.00;99.90;;;;;;5011402;28;20030;-75
2023/12/05 04:11:30;;;;;;;;;;;0.00;99.90;;;;;;5013439;28;20037;-76
2023/12/05 04:13:56;;;;;;;17.80;8.63;;;-0.10;99.90;;;;;;5013093;28;20290;-76
2023/12/05 04:16:23;;;;;;;16.77;9.75;;;-0.20;99.90;;;;;;5013575;28;20044;-76
2023/12/05 04:18:48;;;;;;;17.85;9.02;;;-0.20;99.90;;;;;;5028620;28;20032;-77
2023/12/05 04:21:15;;;;;;;23.65;9.98;;;-0.30;99.90;;;;;;5011890;28;20030;-77
2023/12/05 04:23:41;;;;;;;20.05;10.27;;;-0.20;99.90;;;;;;5013115;28;20036;-76
2023/12/05 04:26:07;;;;;;;19.02;10.27;;;-0.10;99.90;;;;;;5012657;28;20022;-77
2023/12/05 04:28:32;;;;;;;;;;;-0.20;99.90;;;;;;5011860;28;20030;-76
2023/12/05 04:30:58;;;;;;;19.98;9.73;;;-0.10;99.90;;;;;;5012171;28;19905;-76
2023/12/05 04:33:24;;;;;;;18.05;10.20;;;-0.10;99.90;;;;;;5012084;28;20711;-76
2023/12/05 04:35:49;;;;;;;17.45;9.23;;;-0.20;99.90;;;;;;5012529;28;20473;-76
2023/12/05 04:38:15;;;;;;;;;;;-0.20;99.90;;;;;;5011223;28;20084;-75
2023/12/05 04:40:41;;;;;;;19.67;9.98;;;-0.40;99.90;;;;;;5027809;28;19972;-76
2023/12/05 04:43:06;;;;;;;;;;;-0.20;99.90;;;;;;5012763;28;20505;-76
2023/12/05 04:45:32;;;;;;;19.73;9.80;;;0.10;99.90;;;;;;5026709;28;20325;-76
2023/12/05 04:47:57;;;;;;;20.88;10.85;;;0.20;99.90;;;;;;5010559;28;20022;-76
2023/12/05 04:50:23;;;;;;;;;;;0.20;99.90;;;;;;5012501;28;20091;-76
2023/12/05 04:52:49;;;;;;;31.70;13.68;;;0.00;99.90;;;;;;5012112;28;19906;-77
2023/12/05 04:55:14;;;;;;;;;;;0.00;99.90;;;;;;5011806;28;20034;-76
2023/12/05 04:57:40;;;;;;;38.00;15.40;;;0.10;99.90;;;;;;5012158;28;20417;-76
2023/12/05 05:00:06;;;;;;;;;;;0.20;99.90;;;;;;5013266;28;20041;-77
2023/12/05 05:02:32;;;;;;;26.73;13.07;;;0.20;99.90;;;;;;5027369;28;19955;-76
2023/12/05 05:04:57;;;;;;;;;;;0.30;99.90;;;;;;5013383;28;20296;-76
2023/12/05 05:07:23;;;;;;;19.67;8.43;;;0.40;99.90;;;;;;5027940;28;19916;-76
2023/12/05 05:09:49;;;;;;;;;;;0.50;99.90;;;;;;5028193;28;20053;-76
2023/12/05 05:12:15;;;;;;;24.85;11.18;;;0.40;99.90;;;;;;5012165;28;20018;-77
2023/12/05 05:14:40;;;;;;;;;;;0.40;99.90;;;;;;5012859;28;20510;-77
2023/12/05 05:17:07;;;;;;;20.55;10.40;;;0.40;99.90;;;;;;5026856;28;19913;-76
2023/12/05 05:19:33;;;;;;;24.25;12.30;;;0.30;99.90;;;;;;5012448;28;20080;-75
2023/12/05 05:21:59;;;;;;;19.02;10.32;;;0.30;99.90;;;;;;5011446;28;20065;-76
2023/12/05 05:24:25;;;;;;;17.85;10.10;;;0.30;99.90;;;;;;5013683;28;20101;-78
2023/12/05 05:26:50;;;;;;;;;;;0.40;99.90;;;;;;5014512;28;20065;-78
2023/12/05 05:29:16;;;;;;;24.33;11.80;;;0.30;99.90;;;;;;5012203;28;20405;-76
2023/12/05 05:31:42;;;;;;;;;;;0.30;99.90;;;;;;5011048;28;20026;-76
2023/12/05 05:34:07;;;;;;;23.33;12.00;;;0.30;99.90;;;;;;5021294;28;19929;-76
2023/12/05 05:36:33;;;;;;;;;;;0.20;99.90;;;;;;5012611;28;20525;-77
2023/12/05 05:38:58;;;;;;;19.92;10.45;;;0.10;99.90;;;;;;5027395;28;19916;-76
2023/12/05 05:41:24;;;;;;;;;;;0.20;99.90;;;;;;5011090;28;20053;-77
2023/12/05 05:43:49;;;;;;;21.40;10.15;;;0.20;99.90;;;;;;5012557;28;20012;-77
2023/12/05 05:46:15;;;;;;;22.25;10.20;;;0.20;99.90;;;;;;5010930;28;20025;-75
2023/12/05 05:48:41;;;;;;;;;;;0.20;99.90;;;;;;5012100;28;20030;-75
2023/12/05 05:51:06;;;;;;;19.55;9.40;;;0.20;99.90;;;;;;5011187;28;19917;-76
2023/12/05 05:53:32;;;;;;;;;;;0.20;99.90;;;;;;5012979;28;20415;-76
2023/12/05 05:56:01;;;;;;;22.42;10.25;;;0.20;99.90;;;;;;5027079;28;20020;-76
2023/12/05 05:58:27;;;;;;;17.33;9.55;;;0.20;99.90;;;;;;5012245;28;20466;-76
2023/12/05 06:00:53;;;;;;;21.63;9.90;;;0.10;99.90;;;;;;5026634;28;20117;-76
2023/12/05 06:03:19;;;;;;;;;;;0.20;99.90;;;;;;5012076;28;20120;-76
2023/12/05 06:05:44;;;;;;;19.92;9.75;;;0.20;99.90;;;;;;5011492;28;19978;-76
2023/12/05 06:08:10;;;;;;;;;;;0.20;99.90;;;;;;5010346;28;20483;-75
2023/12/05 06:10:36;;;;;;;18.20;9.65;;;0.20;99.90;;;;;;5010830;28;19984;-76
2023/12/05 06:13:01;;;;;;;;;;;0.20;99.90;;;;;;5011839;28;20112;-76
2023/12/05 06:15:30;;;;;;;19.90;9.60;;;0.20;99.90;;;;;;5011644;28;19941;-75
2023/12/05 06:17:57;;;;;;;18.10;9.50;;;0.10;99.90;;;;;;5027049;28;20037;-75
2023/12/05 06:20:23;;;;;;;40.67;20.75;;;0.10;99.90;;;;;;5014320;28;20022;-76
2023/12/05 06:22:48;;;;;;;;;;;0.20;99.90;;;;;;5013844;28;20521;-75
2023/12/05 06:25:14;;;;;;;18.42;10.82;;;0.20;99.90;;;;;;5013913;28;19909;-76
2023/12/05 06:27:41;;;;;;;17.77;9.85;;;0.20;99.90;;;;;;5012670;28;20030;-76
2023/12/05 06:30:07;;;;;;;17.85;9.07;;;0.20;99.90;;;;;;5027023;28;20026;-75
2023/12/05 06:32:33;;;;;;;19.10;9.52;;;0.20;99.90;;;;;;5025379;28;20030;-76
2023/12/05 06:34:59;;;;;;;;;;;0.30;99.90;;;;;;5010388;28;20029;-76
2023/12/05 06:37:25;;;;;;;19.65;10.13;;;0.20;99.90;;;;;;5010117;28;19917;-76
2023/12/05 06:39:51;;;;;;;16.90;9.43;;;0.20;99.90;;;;;;5009119;28;20026;-76
2023/12/05 06:42:16;;;;;;;;;;;0.30;99.90;;;;;;5025631;28;20033;-76
2023/12/05 06:44:43;;;;;;;19.55;10.65;;;0.20;99.90;;;;;;5010314;28;19916;-76
2023/12/05 06:47:09;;;;;;;17.75;9.57;;;0.20;99.90;;;;;;5010230;28;20036;-76
2023/12/05 06:49:34;;;;;;;;;;;0.30;99.90;;;;;;5010852;28;20117;-76
2023/12/05 06:52:02;;;;;;;17.80;10.35;;;0.30;99.90;;;;;;5025506;28;20366;-76
2023/12/05 06:54:28;;;;;;;17.02;9.68;;;0.30;99.90;;;;;;5010502;28;20029;-76
2023/12/05 06:56:54;;;;;;;;;;;0.30;99.90;;;;;;5009377;28;20270;-76
2023/12/05 06:59:19;;;;;;;21.33;11.82;;;0.30;99.90;;;;;;5010087;28;19917;-76
2023/12/05 07:01:45;;;;;;;;;;;0.30;99.90;;;;;;5010917;28;20030;-75
2023/12/05 07:04:10;;;;;;;24.92;11.30;;;0.40;99.90;;;;;;5013542;28;19909;-76
2023/12/05 07:06:36;;;;;;;;;;;0.40;99.90;;;;;;5014071;28;20109;-76
2023/12/05 07:09:04;;;;;;;19.20;10.07;;;0.40;99.90;;;;;;5028720;28;19909;-76
2023/12/05 07:11:29;;;;;;;16.15;8.75;;;0.40;99.90;;;;;;5013235;28;20121;-75
2023/12/05 07:13:55;;;;;;;;;;;0.60;99.90;;;;;;5013758;28;20578;-76
2023/12/05 07:16:21;;;;;;;17.70;9.68;;;0.50;99.90;;;;;;5013308;28;19913;-75
2023/12/05 07:18:46;;;;;;;;;;;0.60;99.90;;;;;;5013486;28;20022;-75
2023/12/05 07:21:12;;;;;;;19.63;11.32;;;0.50;99.90;;;;;;5012551;28;19913;-76
2023/12/05 07:23:37;;;;;;;;;;;0.10;99.90;;;;;;5012451;28;20022;-76
2023/12/05 07:26:04;;;;;;;23.75;12.18;;;0.00;99.90;;;;;;5013200;28;19905;-75
2023/12/05 07:28:29;;;;;;;22.52;11.43;;;0.10;99.90;;;;;;5013548;28;20017;-76
2023/12/05 07:30:55;;;;;;;;;;;0.20;99.90;;;;;;5013047;28;20049;-76
2023/12/05 07:33:21;;;;;;;19.63;10.50;;;0.40;99.90;;;;;;5028316;28;19944;-76
2023/12/05 07:35:46;;;;;;;;;;;0.60;99.90;;;;;;5013978;28;20038;-75
2023/12/05 07:38:12;;;;;;;22.80;11.80;;;0.70;99.90;;;;;;5007504;28;19916;-75
2023/12/05 07:40:38;;;;;;;;;;;0.70;99.90;;;;;;5011007;28;20113;-75
2023/12/05 07:43:03;;;;;;;34.03;13.95;;;0.80;99.90;;;;;;5027015;28;19915;-75
2023/12/05 07:45:29;;;;;;;31.38;15.13;;;0.70;99.90;;;;;;5012370;28;20026;-75
2023/12/05 07:47:55;;;;;;;;;;;0.70;99.90;;;;;;5012862;28;20045;-76
2023/12/05 07:50:21;;;;;;;32.45;15.85;;;0.70;99.90;;;;;;5012786;28;19979;-77
2023/12/05 07:52:51;;;;;;;37.03;19.33;;;0.60;99.90;;;;;;5011495;28;20057;-77
2023/12/05 07:55:19;;;;;;;64.40;27.98;;;0.50;99.90;;;;;;5011155;28;20029;-75
2023/12/05 07:57:46;;;;;;;42.80;19.77;;;0.30;99.90;;;;;;5012970;28;20498;-76
2023/12/05 08:00:17;;;;;;;27.15;14.52;;;0.40;99.90;;;;;;5011102;28;20037;-75
2023/12/05 08:02:46;;;;;;;29.50;16.23;;;0.80;99.90;;;;;;5012252;28;20840;-76
2023/12/05 08:05:12;;;;;;;22.95;13.02;;;0.80;99.90;;;;;;5010813;28;20022;-76
2023/12/05 08:07:38;;;;;;;;;;;0.90;99.90;;;;;;5012702;28;20104;-75
2023/12/05 08:10:06;;;;;;;28.87;14.97;;;0.80;99.90;;;;;;5027845;28;19909;-75
2023/12/05 08:12:31;;;;;;;28.02;14.85;;;0.80;99.90;;;;;;5012379;28;20267;-76
2023/12/05 08:14:57;;;;;;;;;;;0.80;99.90;;;;;;5013143;28;20028;-75
2023/12/05 08:17:23;;;;;;;37.50;17.13;;;0.80;99.90;;;;;;5027254;28;19913;-75
2023/12/05 08:19:48;;;;;;;;;;;0.70;99.90;;;;;;5011740;28;20498;-76
2023/12/05 08:22:14;;;;;;;39.65;17.48;;;0.50;99.90;;;;;;5013533;28;19909;-76
2023/12/05 08:24:40;;;;;;;;;;;0.40;99.90;;;;;;5012525;28;20096;-76
2023/12/05 08:27:05;;;;;;;25.63;13.82;;;0.50;99.90;;;;;;5028949;28;20490;-75
2023/12/05 08:29:31;;;;;;;;;;;0.70;99.90;;;;;;5013741;28;20069;-76
2023/12/05 08:31:57;;;;;;;199.02;66.40;;;0.70;99.90;;;;;;5028720;28;20004;-76
2023/12/05 08:34:22;;;;;;;;;;;0.60;99.90;;;;;;5013963;28;20046;-76
2023/12/05 08:36:48;;;;;;;79.63;31.10;;;0.40;99.90;;;;;;5027728;28;19920;-76
2023/12/05 08:39:13;;;;;;;;;;;0.40;99.90;;;;;;5010819;28;20116;-77
2023/12/05 08:41:39;;;;;;;35.10;16.23;;;0.70;99.90;;;;;;5011757;28;19909;-76
2023/12/05 08:44:04;;;;;;;;;;;0.70;99.90;;;;;;5010990;28;20112;-77
2023/12/05 08:46:31;;;;;;;89.40;36.70;;;0.70;99.90;;;;;;5011699;28;20294;-76
2023/12/05 08:48:57;;;;;;;78.07;34.38;;;0.50;99.90;;;;;;5012076;28;20041;-76
2023/12/05 08:51:22;;;;;;;;;;;0.40;99.90;;;;;;5011212;28;20029;-77
2023/12/05 08:53:48;;;;;;;68.32;30.55;;;0.50;99.90;;;;;;5027686;28;20189;-76
2023/12/05 08:56:13;;;;;;;;;;;0.60;99.90;;;;;;5012177;28;20479;-77
2023/12/05 08:58:39;;;;;;;55.50;26.35;;;1.00;99.90;;;;;;5010586;28;19996;-76
2023/12/05 09:01:05;;;;;;;;;;;0.90;99.90;;;;;;5011984;28;20058;-76
2023/12/05 09:03:30;;;;;;;46.90;23.00;;;0.80;99.90;;;;;;5011926;28;19979;-76
2023/12/05 09:05:56;;;;;;;59.80;28.08;;;0.80;99.90;;;;;;5011735;28;20037;-76
2023/12/05 09:08:22;;;;;;;;;;;0.70;99.90;;;;;;5012128;28;20554;-76
2023/12/05 09:10:47;;;;;;;71.85;32.90;;;0.80;99.90;;;;;;5011703;28;20404;-76
2023/12/05 09:13:16;;;;;;;;;;;1.10;99.90;;;;;;5010015;28;20087;-76
2023/12/05 09:15:42;;;;;;;48.25;26.05;;;1.20;99.90;;;;;;5011198;28;19924;-75
2023/12/05 09:18:07;;;;;;;;;;;1.00;99.90;;;;;;5011756;28;20026;-77
2023/12/05 09:20:33;;;;;;;41.63;20.63;;;0.90;99.90;;;;;;5026805;28;19967;-75
2023/12/05 09:22:58;;;;;;;;;;;1.10;99.90;;;;;;5011033;28;20137;-75
2023/12/05 09:25:24;;;;;;;35.97;17.92;;;1.10;99.90;;;;;;5012730;28;19985;-75
2023/12/05 09:27:49;;;;;;;;;;;1.10;99.90;;;;;;5027388;28;20517;-76
2023/12/05 09:30:15;;;;;;;31.15;16.52;;;1.00;99.90;;;;;;5011678;28;19910;-75
2023/12/05 09:32:41;;;;;;;;;;;1.00;99.90;;;;;;5011161;28;20065;-76
2023/12/05 09:35:07;;;;;;;31.20;16.20;;;1.10;99.90;;;;;;5011148;28;20337;-76
2023/12/05 09:37:32;;;;;;;;;;;0.90;99.90;;;;;;5009904;28;20124;-76
2023/12/05 09:39:58;;;;;;;34.42;18.05;;;0.90;99.90;;;;;;5025719;28;19910;-77
2023/12/05 09:42:25;;;;;;;72.30;32.05;;;0.90;99.90;;;;;;5010996;28;20030;-77
2023/12/05 09:44:52;;;;;;;54.55;26.65;;;1.00;99.90;;;;;;5025628;28;20037;-75
2023/12/05 09:47:21;;;;;;;44.42;19.30;;;0.70;99.90;;;;;;5009330;28;20026;-76
2023/12/05 09:49:47;;;;;;;36.53;18.98;;;0.90;99.90;;;;;;5010578;28;20110;-76
2023/12/05 09:52:13;;;;;;;;;;;1.00;99.90;;;;;;5009775;28;20109;-76
2023/12/05 09:54:43;;;;;;;40.58;21.48;;;1.10;99.90;;;;;;5025988;28;19909;-75
2023/12/05 09:57:12;;;;;;;29.90;16.13;;;1.10;99.90;;;;;;5010367;28;20081;-76
2023/12/05 09:59:38;;;;;;;32.95;17.70;;;1.00;99.90;;;;;;5010376;28;20021;-76
2023/12/05 10:02:04;;;;;;;;;;;1.10;99.90;;;;;;5010191;28;20088;-76
2023/12/05 10:04:40;;;;;;;32.23;16.93;;;0.90;99.90;;;;;;5010870;28;19909;-76
2023/12/05 10:07:06;;;;;;;28.40;16.38;;;1.00;99.90;;;;;;5009959;28;20261;-76
2023/12/05 10:09:32;;;;;;;30.25;16.27;;;1.10;99.90;;;;;;5010999;28;20041;-76
2023/12/05 10:11:58;;;;;;;29.17;16.70;;;1.20;99.90;;;;;;5009532;28;20083;-76
2023/12/05 10:14:24;;;;;;;;;;;1.10;99.90;;;;;;5009940;28;20801;-76
2023/12/05 10:16:51;;;;;;;30.92;16.17;;;1.10;99.90;;;;;;5011005;28;19959;-76
2023/12/05 10:19:18;;;;;;;31.73;17.48;;;1.30;99.90;;;;;;5010554;28;20487;-76
2023/12/05 10:21:44;;;;;;;29.63;15.60;;;1.30;99.90;;;;;;5009391;28;20037;-75
2023/12/05 10:24:12;;;;;;;32.45;18.00;;;1.40;99.90;;;;;;5009342;28;20391;-75
2023/12/05 10:26:46;;;;;;;28.98;17.38;;;1.30;99.90;;;;;;5009314;28;20510;-75
2023/12/05 10:29:13;;;;;;;33.50;19.30;;;1.20;99.90;;;;;;5009067;28;20749;-76
2023/12/05 10:31:40;;;;;;;31.45;18.10;;;1.20;99.90;;;;;;5011239;28;20519;-77
2023/12/05 10:34:06;;;;;;;31.55;16.17;;;1.20;99.90;;;;;;5009550;28;20053;-77
2023/12/05 10:36:32;;;;;;;;;;;1.40;99.90;;;;;;5012455;28;20037;-76
2023/12/05 10:38:58;;;;;;;37.50;20.20;;;1.40;99.90;;;;;;5030909;28;19963;-76
2023/12/05 10:41:24;;;;;;;;;;;1.40;99.90;;;;;;5014894;28;20030;-76
2023/12/05 10:43:51;;;;;;;33.40;16.30;;;1.60;99.90;;;;;;5013960;28;19913;-76
2023/12/05 10:46:17;;;;;;;32.03;17.25;;;1.60;99.90;;;;;;5013673;28;20025;-75
2023/12/05 10:48:44;;;;;;;;;;;1.60;99.90;;;;;;5012790;28;20516;-77
2023/12/05 10:51:10;;;;;;;30.40;17.73;;;1.60;99.90;;;;;;5013486;28;19909;-75
2023/12/05 10:53:35;;;;;;;;;;;1.70;99.90;;;;;;5013899;28;20040;-75
2023/12/05 10:56:11;;;;;;;33.42;17.98;;;1.60;99.90;;;;;;5028388;28;19960;-76
2023/12/05 10:58:40;;;;;;;30.63;17.25;;;1.60;99.90;;;;;;5014021;28;20528;-76
2023/12/05 11:01:11;;;;;;;30.88;17.67;;;1.60;99.90;;;;;;5012401;28;20087;-76
2023/12/05 11:03:38;;;;;;;28.60;17.52;;;1.60;99.90;;;;;;5012739;28;20040;-77
2023/12/05 11:06:07;;;;;;;30.88;17.48;;;1.60;99.90;;;;;;5013824;28;20514;-76
2023/12/05 11:08:36;;;;;;;33.45;17.55;;;1.70;99.90;;;;;;5012446;28;20061;-76
2023/12/05 11:11:03;;;;;;;31.73;17.33;;;1.70;99.90;;;;;;5012150;28;20573;-76
2023/12/05 11:13:32;;;;;;;32.13;18.23;;;1.80;99.90;;;;;;5011815;28;20136;-75
2023/12/05 11:16:03;;;;;;;37.22;17.83;;;1.80;99.90;;;;;;5013166;28;20026;-75
2023/12/05 11:18:35;;;;;;;40.85;21.63;;;1.80;99.90;;;;;;5011725;28;20026;-77
2023/12/05 11:21:32;;;;;;;39.40;21.88;;;1.90;99.90;;;;;;5011794;28;20022;-76
2023/12/05 11:24:08;;;;;;;43.30;21.52;;;1.80;99.90;;;;;;5009113;28;20030;-77
2023/12/05 11:27:07;;;;;;;39.20;20.65;;;1.90;99.90;;;;;;5013433;28;20490;-76
2023/12/05 11:29:41;;;;;;;56.00;27.80;;;1.90;99.90;;;;;;5012223;28;20120;-76
2023/12/05 11:32:25;;;;;;;45.50;25.63;;;1.70;99.90;;;;;;5012499;28;20386;-76
2023/12/05 11:35:16;;;;;;;63.67;30.98;;;1.70;99.90;;;;;;5012555;28;20037;-76
2023/12/05 11:37:54;;;;;;;72.40;46.42;;;1.50;99.90;;;;;;5013559;28;20045;-76
2023/12/05 11:40:19;;;;;;;41.42;21.13;;;1.50;99.90;;;;;;5012324;28;20069;-76
2023/12/05 11:43:14;;;;;;;;;;;1.70;99.90;;;;;;5013455;28;20068;-76
2023/12/05 11:45:42;;;;;;;34.15;19.00;;;1.90;99.90;;;;;;5007072;28;19937;-76
2023/12/05 11:48:13;;;;;;;35.80;18.20;;;1.90;99.90;;;;;;5010308;28;20026;-75
2023/12/05 11:50:40;;;;;;;34.53;19.10;;;1.80;99.90;;;;;;5012460;28;20033;-76
2023/12/05 11:53:08;;;;;;;39.38;21.30;;;1.70;99.90;;;;;;5011948;28;20546;-76
2023/12/05 11:55:35;;;;;;;38.28;21.17;;;1.50;99.90;;;;;;5013417;28;20025;-75
2023/12/05 11:58:01;;;;;;;41.72;21.60;;;1.60;99.90;;;;;;5013644;28;20037;-76
2023/12/05 12:00:26;;;;;;;;;;;1.50;99.90;;;;;;5013848;28;20026;-76
2023/12/05 12:02:59;;;;;;;33.45;17.77;;;1.50;99.90;;;;;;5012899;28;20287;-76
2023/12/05 12:05:24;;;;;;;37.58;19.00;;;1.70;99.90;;;;;;5011777;28;20060;-76
2023/12/05 12:07:52;;;;;;;;;;;1.80;99.90;;;;;;5012089;28;20483;-76
2023/12/05 12:10:19;;;;;;;35.83;17.98;;;1.70;99.90;;;;;;5012722;28;19916;-76
2023/12/05 12:12:49;;;;;;;34.03;18.40;;;1.80;99.90;;;;;;5011500;28;20057;-75
2023/12/05 12:15:16;;;;;;;35.08;19.23;;;1.80;99.90;;;;;;5012732;28;20103;-76
2023/12/05 12:17:44;;;;;;;36.35;19.75;;;1.70;99.90;;;;;;5012871;28;20116;-76
2023/12/05 12:20:17;;;;;;;38.80;18.73;;;1.70;99.90;;;;;;5011322;28;20391;-76
2023/12/05 12:22:48;;;;;;;34.40;17.83;;;1.70;99.90;;;;;;5012800;28;20026;-76
2023/12/05 12:25:14;;;;;;;32.15;18.10;;;1.70;99.90;;;;;;5011349;28;20553;-76
2023/12/05 12:27:40;;;;;;;;;;;1.60;99.90;;;;;;5007812;28;20030;-75
2023/12/05 12:30:14;;;;;;;34.47;18.60;;;1.60;99.90;;;;;;5027239;28;20366;-75
2023/12/05 12:32:57;;;;;;;35.75;19.23;;;1.60;99.90;;;;;;5011113;28;20415;-76
2023/12/05 12:35:28;;;;;;;33.75;17.92;;;1.70;99.90;;;;;;5011420;28;20029;-76
2023/12/05 12:37:55;;;;;;;35.70;19.77;;;1.70;99.90;;;;;;5010948;28;20127;-76
2023/12/05 12:40:21;;;;;;;33.13;18.58;;;1.60;99.90;;;;;;5011129;28;20022;-76
2023/12/05 12:42:54;;;;;;;32.70;19.13;;;1.50;99.90;;;;;;5012361;28;20050;-76
2023/12/05 12:45:24;;;;;;;35.83;20.52;;;1.60;99.90;;;;;;5011172;28;20022;-76
2023/12/05 12:47:51;;;;;;;29.15;16.98;;;1.70;99.90;;;;;;5011310;28;20029;-76
2023/12/05 12:50:17;;;;;;;37.72;19.75;;;1.60;99.90;;;;;;5011721;28;20022;-76
2023/12/05 12:52:43;;;;;;;;;;;1.60;99.90;;;;;;5010916;28;20064;-76
2023/12/05 12:55:09;;;;;;;34.20;18.60;;;1.60;99.90;;;;;;5025955;28;19933;-76
2023/12/05 12:57:35;;;;;;;45.97;23.60;;;1.50;99.90;;;;;;5010579;28;20503;-76
2023/12/05 13:00:01;;;;;;;;;;;1.50;99.90;;;;;;5010825;28;20022;-76
2023/12/05 13:02:31;;;;;;;37.43;19.83;;;1.50;99.90;;;;;;5010653;28;19906;-76
2023/12/05 13:04:58;;;;;;;51.85;27.85;;;1.50;99.90;;;;;;5009312;28;20727;-75